sensor_id;sensor_type;location;lat;lon;timestamp;temperature;humidity
10722;DHT22;5412;59.450;18.124;2022-07-23T00:00:14;18.00;99.90
10722;DHT22;5412;59.450;18.124;2022-07-23T00:02:40;18.10;99.90
10722;DHT22;5412;59.450;18.124;2022-07-23T00:05:06;18.10;99.90
10722;DHT22;5412;59.450;18.124;2022-07-23T00:07:31;18.00;99.90
10722;DHT22;5412;59.450;18.124;2022-07-23T00:09:57;18.00;99.90
10722;DHT22;5412;59.450;18.124;2022-07-23T00:12:23;18.00;99.90
10722;DHT22;5412;59.450;18.124;2022-07-23T00:14:48;18.10;99.90
10722;DHT22;5412;59.450;18.124;2022-07-23T00:17:14;18.10;99.90
10722;DHT22;5412;59.450;18.124;2022-07-23T00:19:40;17.90;99.90
10722;DHT22;5412;59.450;18.124;2022-07-23T00:22:05;17.70;99.90
10722;DHT22;5412;59.450;18.124;2022-07-23T00:24:31;17.60;99.90
10722;DHT22;5412;59.450;18.124;2022-07-23T00:26:57;17.70;99.90
10722;DHT22;5412;59.450;18.124;2022-07-23T00:29:22;17.80;99.90
10722;DHT22;5412;59.450;18.124;2022-07-23T00:31:48;17.80;99.90
10722;DHT22;5412;59.450;18.124;2022-07-23T00:34:13;17.70;99.90
10722;DHT22;5412;59.450;18.124;2022-07-23T00:36:39;17.70;99.90
10722;DHT22;5412;59.450;18.124;2022-07-23T00:39:05;17.70;99.90
10722;DHT22;5412;59.450;18.124;2022-07-23T00:41:30;17.80;99.90
10722;DHT22;5412;59.450;18.124;2022-07-23T00:44:14;17.60;99.90
10722;DHT22;5412;59.450;18.124;2022-07-23T00:46:49;17.40;99.90
10722;DHT22;5412;59.450;18.124;2022-07-23T00:49:15;17.40;99.90
10722;DHT22;5412;59.450;18.124;2022-07-23T00:51:41;17.20;99.90
10722;DHT22;5412;59.450;18.124;2022-07-23T00:54:07;16.90;99.90
10722;DHT22;5412;59.450;18.124;2022-07-23T00:56:33;16.90;99.90
10722;DHT22;5412;59.450;18.124;2022-07-23T00:59:00;17.00;99.90
10722;DHT22;5412;59.450;18.124;2022-07-23T01:01:26;16.90;99.90
10722;DHT22;5412;59.450;18.124;2022-07-23T01:03:52;16.90;99.90
10722;DHT22;5412;59.450;18.124;2022-07-23T01:06:17;16.90;99.90
10722;DHT22;5412;59.450;18.124;2022-07-23T01:08:43;17.00;99.90
10722;DHT22;5412;59.450;18.124;2022-07-23T01:11:08;16.80;99.90
10722;DHT22;5412;59.450;18.124;2022-07-23T01:13:34;16.80;99.90
10722;DHT22;5412;59.450;18.124;2022-07-23T01:16:00;16.70;99.90
10722;DHT22;5412;59.450;18.124;2022-07-23T01:18:25;16.60;99.90
10722;DHT22;5412;59.450;18.124;2022-07-23T01:20:51;16.50;99.90
10722;DHT22;5412;59.450;18.124;2022-07-23T01:23:17;16.60;99.90
10722;DHT22;5412;59.450;18.124;2022-07-23T01:25:55;16.40;99.90
10722;DHT22;5412;59.450;18.124;2022-07-23T01:28:21;16.50;99.90
10722;DHT22;5412;59.450;18.124;2022-07-23T01:30:48;16.50;99.90
10722;DHT22;5412;59.450;18.124;2022-07-23T01:33:14;16.50;99.90
10722;DHT22;5412;59.450;18.124;2022-07-23T01:35:39;16.30;99.90
10722;DHT22;5412;59.450;18.124;2022-07-23T01:38:05;16.40;99.90
10722;DHT22;5412;59.450;18.124;2022-07-23T01:40:31;16.30;99.90
10722;DHT22;5412;59.450;18.124;2022-07-23T01:42:57;16.30;99.90
10722;DHT22;5412;59.450;18.124;2022-07-23T01:45:22;16.30;99.90
10722;DHT22;5412;59.450;18.124;2022-07-23T01:47:48;16.30;99.90
10722;DHT22;5412;59.450;18.124;2022-07-23T01:50:14;16.20;99.90
10722;DHT22;5412;59.450;18.124;2022-07-23T01:52:40;16.10;99.90
10722;DHT22;5412;59.450;18.124;2022-07-23T01:55:06;16.00;99.90
10722;DHT22;5412;59.450;18.124;2022-07-23T01:57:32;16.00;99.90
10722;DHT22;5412;59.450;18.124;2022-07-23T01:59:58;15.90;99.90
10722;DHT22;5412;59.450;18.124;2022-07-23T02:02:24;15.90;99.90
10722;DHT22;5412;59.450;18.124;2022-07-23T02:04:50;15.80;99.90
10722;DHT22;5412;59.450;18.124;2022-07-23T02:07:16;15.90;99.90
10722;DHT22;5412;59.450;18.124;2022-07-23T02:09:41;16.00;99.90
10722;DHT22;5412;59.450;18.124;2022-07-23T02:12:07;16.10;99.90
10722;DHT22;5412;59.450;18.124;2022-07-23T02:14:33;16.10;99.90
10722;DHT22;5412;59.450;18.124;2022-07-23T02:16:59;16.00;99.90
10722;DHT22;5412;59.450;18.124;2022-07-23T02:19:24;16.10;99.90
10722;DHT22;5412;59.450;18.124;2022-07-23T02:21:50;16.10;99.90
10722;DHT22;5412;59.450;18.124;2022-07-23T02:24:16;16.00;99.90
10722;DHT22;5412;59.450;18.124;2022-07-23T02:26:42;16.00;99.90
10722;DHT22;5412;59.450;18.124;2022-07-23T02:29:08;16.00;99.90
10722;DHT22;5412;59.450;18.124;2022-07-23T02:31:33;16.00;99.90
10722;DHT22;5412;59.450;18.124;2022-07-23T02:34:00;15.80;99.90
10722;DHT22;5412;59.450;18.124;2022-07-23T02:36:26;15.90;99.90
10722;DHT22;5412;59.450;18.124;2022-07-23T02:38:52;16.00;99.90
10722;DHT22;5412;59.450;18.124;2022-07-23T02:41:18;15.90;99.90
10722;DHT22;5412;59.450;18.124;2022-07-23T02:43:43;16.00;99.90
10722;DHT22;5412;59.450;18.124;2022-07-23T02:46:09;16.10;99.90
10722;DHT22;5412;59.450;18.124;2022-07-23T02:48:35;16.10;99.90
10722;DHT22;5412;59.450;18.124;2022-07-23T02:51:00;16.10;99.90
10722;DHT22;5412;59.450;18.124;2022-07-23T02:53:26;15.70;99.90
10722;DHT22;5412;59.450;18.124;2022-07-23T02:55:51;15.80;99.90
10722;DHT22;5412;59.450;18.124;2022-07-23T02:58:17;15.70;99.90
10722;DHT22;5412;59.450;18.124;2022-07-23T03:00:43;15.80;99.90
10722;DHT22;5412;59.450;18.124;2022-07-23T03:03:09;15.70;99.90
10722;DHT22;5412;59.450;18.124;2022-07-23T03:05:34;15.90;99.90
10722;DHT22;5412;59.450;18.124;2022-07-23T03:08:00;15.80;99.90
10722;DHT22;5412;59.450;18.124;2022-07-23T03:10:26;15.70;99.90
10722;DHT22;5412;59.450;18.124;2022-07-23T03:12:52;15.80;99.90
10722;DHT22;5412;59.450;18.124;2022-07-23T03:15:17;15.80;99.90
10722;DHT22;5412;59.450;18.124;2022-07-23T03:17:43;15.90;99.90
10722;DHT22;5412;59.450;18.124;2022-07-23T03:20:09;16.00;99.90
10722;DHT22;5412;59.450;18.124;2022-07-23T03:22:34;16.10;99.90
10722;DHT22;5412;59.450;18.124;2022-07-23T03:25:00;16.10;99.90
10722;DHT22;5412;59.450;18.124;2022-07-23T03:27:28;16.00;99.90
10722;DHT22;5412;59.450;18.124;2022-07-23T03:29:55;16.10;99.90
10722;DHT22;5412;59.450;18.124;2022-07-23T03:32:22;16.10;99.90
10722;DHT22;5412;59.450;18.124;2022-07-23T03:34:48;16.10;99.90
10722;DHT22;5412;59.450;18.124;2022-07-23T03:37:14;16.10;99.90
10722;DHT22;5412;59.450;18.124;2022-07-23T03:39:40;16.10;99.90
10722;DHT22;5412;59.450;18.124;2022-07-23T03:42:06;16.10;99.90
10722;DHT22;5412;59.450;18.124;2022-07-23T03:44:32;16.20;99.90
10722;DHT22;5412;59.450;18.124;2022-07-23T03:46:58;16.20;99.90
10722;DHT22;5412;59.450;18.124;2022-07-23T03:49:23;16.20;99.90
10722;DHT22;5412;59.450;18.124;2022-07-23T03:51:49;16.30;99.90
10722;DHT22;5412;59.450;18.124;2022-07-23T03:54:15;16.30;99.90
10722;DHT22;5412;59.450;18.124;2022-07-23T03:56:41;16.30;99.90
10722;DHT22;5412;59.450;18.124;2022-07-23T03:59:08;16.20;99.90
10722;DHT22;5412;59.450;18.124;2022-07-23T04:01:34;16.30;99.90
10722;DHT22;5412;59.450;18.124;2022-07-23T04:04:00;16.10;99.90
10722;DHT22;5412;59.450;18.124;2022-07-23T04:06:26;16.30;99.90
10722;DHT22;5412;59.450;18.124;2022-07-23T04:08:52;16.30;99.90
10722;DHT22;5412;59.450;18.124;2022-07-23T04:11:17;16.30;99.90
10722;DHT22;5412;59.450;18.124;2022-07-23T04:13:43;16.30;99.90
10722;DHT22;5412;59.450;18.124;2022-07-23T04:16:08;16.20;99.90
10722;DHT22;5412;59.450;18.124;2022-07-23T04:18:34;16.20;99.90
10722;DHT22;5412;59.450;18.124;2022-07-23T04:21:00;16.20;99.90
10722;DHT22;5412;59.450;18.124;2022-07-23T04:23:25;16.20;99.90
10722;DHT22;5412;59.450;18.124;2022-07-23T04:25:51;16.20;99.90
10722;DHT22;5412;59.450;18.124;2022-07-23T04:28:16;16.30;99.90
10722;DHT22;5412;59.450;18.124;2022-07-23T04:30:42;16.30;99.90
10722;DHT22;5412;59.450;18.124;2022-07-23T04:33:08;16.40;99.90
10722;DHT22;5412;59.450;18.124;2022-07-23T04:35:34;16.30;99.90
10722;DHT22;5412;59.450;18.124;2022-07-23T04:38:00;16.40;99.90
10722;DHT22;5412;59.450;18.124;2022-07-23T04:40:26;16.50;99.90
10722;DHT22;5412;59.450;18.124;2022-07-23T04:42:52;16.20;99.90
10722;DHT22;5412;59.450;18.124;2022-07-23T04:45:17;16.10;99.90
10722;DHT22;5412;59.450;18.124;2022-07-23T04:47:43;16.10;99.90
10722;DHT22;5412;59.450;18.124;2022-07-23T04:50:09;16.10;99.90
10722;DHT22;5412;59.450;18.124;2022-07-23T04:52:34;16.20;99.90
10722;DHT22;5412;59.450;18.124;2022-07-23T04:55:00;16.30;99.90
10722;DHT22;5412;59.450;18.124;2022-07-23T04:57:26;16.50;99.90
10722;DHT22;5412;59.450;18.124;2022-07-23T04:59:51;16.50;99.90
10722;DHT22;5412;59.450;18.124;2022-07-23T05:02:17;16.40;99.90
10722;DHT22;5412;59.450;18.124;2022-07-23T05:04:42;16.50;99.90
10722;DHT22;5412;59.450;18.124;2022-07-23T05:07:08;16.30;99.90
10722;DHT22;5412;59.450;18.124;2022-07-23T05:09:34;16.40;99.90
10722;DHT22;5412;59.450;18.124;2022-07-23T05:11:59;16.40;99.90
10722;DHT22;5412;59.450;18.124;2022-07-23T05:14:25;16.60;99.90
10722;DHT22;5412;59.450;18.124;2022-07-23T05:16:51;16.60;99.90
10722;DHT22;5412;59.450;18.124;2022-07-23T05:19:17;16.50;99.90
10722;DHT22;5412;59.450;18.124;2022-07-23T05:21:43;16.20;99.90
10722;DHT22;5412;59.450;18.124;2022-07-23T05:24:08;16.10;99.90
10722;DHT22;5412;59.450;18.124;2022-07-23T05:26:34;16.20;99.90
10722;DHT22;5412;59.450;18.124;2022-07-23T05:29:00;16.40;99.90
10722;DHT22;5412;59.450;18.124;2022-07-23T05:31:25;16.60;99.90
10722;DHT22;5412;59.450;18.124;2022-07-23T05:33:51;16.60;99.90
10722;DHT22;5412;59.450;18.124;2022-07-23T05:36:16;16.70;99.90
10722;DHT22;5412;59.450;18.124;2022-07-23T05:38:42;16.50;99.90
10722;DHT22;5412;59.450;18.124;2022-07-23T05:41:07;16.60;99.90
10722;DHT22;5412;59.450;18.124;2022-07-23T05:43:33;16.80;99.90
10722;DHT22;5412;59.450;18.124;2022-07-23T05:45:59;17.00;99.90
10722;DHT22;5412;59.450;18.124;2022-07-23T05:48:24;17.20;99.90
10722;DHT22;5412;59.450;18.124;2022-07-23T05:50:50;17.40;99.90
10722;DHT22;5412;59.450;18.124;2022-07-23T05:53:16;17.50;99.90
10722;DHT22;5412;59.450;18.124;2022-07-23T05:55:41;17.70;99.90
10722;DHT22;5412;59.450;18.124;2022-07-23T05:58:07;17.70;99.90
10722;DHT22;5412;59.450;18.124;2022-07-23T06:00:34;17.60;99.90
10722;DHT22;5412;59.450;18.124;2022-07-23T06:03:00;17.60;99.90
10722;DHT22;5412;59.450;18.124;2022-07-23T06:05:26;17.60;99.90
10722;DHT22;5412;59.450;18.124;2022-07-23T06:07:51;17.50;99.90
10722;DHT22;5412;59.450;18.124;2022-07-23T06:10:18;17.50;99.90
10722;DHT22;5412;59.450;18.124;2022-07-23T06:12:44;17.40;99.90
10722;DHT22;5412;59.450;18.124;2022-07-23T06:15:10;17.50;99.90
10722;DHT22;5412;59.450;18.124;2022-07-23T06:17:36;17.60;99.90
10722;DHT22;5412;59.450;18.124;2022-07-23T06:20:08;17.40;99.90
10722;DHT22;5412;59.450;18.124;2022-07-23T06:22:34;17.50;99.90
10722;DHT22;5412;59.450;18.124;2022-07-23T06:25:00;17.60;99.90
10722;DHT22;5412;59.450;18.124;2022-07-23T06:27:26;17.70;99.90
10722;DHT22;5412;59.450;18.124;2022-07-23T06:29:51;17.80;99.90
10722;DHT22;5412;59.450;18.124;2022-07-23T06:32:17;17.60;99.90
10722;DHT22;5412;59.450;18.124;2022-07-23T06:34:43;17.60;99.90
10722;DHT22;5412;59.450;18.124;2022-07-23T06:37:08;17.40;99.90
10722;DHT22;5412;59.450;18.124;2022-07-23T06:39:34;17.70;99.90
10722;DHT22;5412;59.450;18.124;2022-07-23T06:41:59;17.80;99.90
10722;DHT22;5412;59.450;18.124;2022-07-23T06:44:26;17.70;99.90
10722;DHT22;5412;59.450;18.124;2022-07-23T06:46:52;17.90;99.90
10722;DHT22;5412;59.450;18.124;2022-07-23T06:49:17;17.90;99.90
10722;DHT22;5412;59.450;18.124;2022-07-23T06:51:43;18.00;99.90
10722;DHT22;5412;59.450;18.124;2022-07-23T06:54:09;18.10;99.90
10722;DHT22;5412;59.450;18.124;2022-07-23T06:56:34;18.00;99.90
10722;DHT22;5412;59.450;18.124;2022-07-23T06:59:00;17.90;99.90
10722;DHT22;5412;59.450;18.124;2022-07-23T07:01:26;18.00;99.90
10722;DHT22;5412;59.450;18.124;2022-07-23T07:03:51;18.10;99.90
10722;DHT22;5412;59.450;18.124;2022-07-23T07:06:17;18.20;99.90
10722;DHT22;5412;59.450;18.124;2022-07-23T07:08:43;18.20;99.90
10722;DHT22;5412;59.450;18.124;2022-07-23T07:11:09;18.20;99.90
10722;DHT22;5412;59.450;18.124;2022-07-23T07:13:35;18.10;99.90
10722;DHT22;5412;59.450;18.124;2022-07-23T07:16:01;18.00;99.90
10722;DHT22;5412;59.450;18.124;2022-07-23T07:18:27;18.00;99.90
10722;DHT22;5412;59.450;18.124;2022-07-23T07:20:52;18.00;99.90
10722;DHT22;5412;59.450;18.124;2022-07-23T07:23:18;18.10;99.90
10722;DHT22;5412;59.450;18.124;2022-07-23T07:25:45;18.10;99.90
10722;DHT22;5412;59.450;18.124;2022-07-23T07:28:11;18.00;99.90
10722;DHT22;5412;59.450;18.124;2022-07-23T07:30:37;18.10;99.90
10722;DHT22;5412;59.450;18.124;2022-07-23T07:33:02;18.20;99.90
10722;DHT22;5412;59.450;18.124;2022-07-23T07:35:28;18.40;99.90
10722;DHT22;5412;59.450;18.124;2022-07-23T07:37:54;18.50;99.90
10722;DHT22;5412;59.450;18.124;2022-07-23T07:40:19;18.50;99.90
10722;DHT22;5412;59.450;18.124;2022-07-23T07:42:50;18.60;99.90
10722;DHT22;5412;59.450;18.124;2022-07-23T07:45:16;18.50;99.90
10722;DHT22;5412;59.450;18.124;2022-07-23T07:47:42;18.40;99.90
10722;DHT22;5412;59.450;18.124;2022-07-23T07:50:08;18.60;99.90
10722;DHT22;5412;59.450;18.124;2022-07-23T07:52:35;18.50;99.90
10722;DHT22;5412;59.450;18.124;2022-07-23T07:55:05;18.60;99.90
10722;DHT22;5412;59.450;18.124;2022-07-23T07:57:31;18.60;99.90
10722;DHT22;5412;59.450;18.124;2022-07-23T07:59:57;18.40;99.90
10722;DHT22;5412;59.450;18.124;2022-07-23T08:02:22;18.60;99.90
10722;DHT22;5412;59.450;18.124;2022-07-23T08:04:48;18.50;99.90
10722;DHT22;5412;59.450;18.124;2022-07-23T08:07:14;18.50;99.90
10722;DHT22;5412;59.450;18.124;2022-07-23T08:09:40;18.60;99.90
10722;DHT22;5412;59.450;18.124;2022-07-23T08:12:06;18.70;99.90
10722;DHT22;5412;59.450;18.124;2022-07-23T08:14:32;18.70;99.90
10722;DHT22;5412;59.450;18.124;2022-07-23T08:16:57;18.50;99.90
10722;DHT22;5412;59.450;18.124;2022-07-23T08:19:23;18.50;99.90
10722;DHT22;5412;59.450;18.124;2022-07-23T08:21:49;18.60;99.90
10722;DHT22;5412;59.450;18.124;2022-07-23T08:24:14;18.60;99.90
10722;DHT22;5412;59.450;18.124;2022-07-23T08:26:40;18.60;99.90
10722;DHT22;5412;59.450;18.124;2022-07-23T08:29:06;18.50;99.90
10722;DHT22;5412;59.450;18.124;2022-07-23T08:31:31;18.50;99.90
10722;DHT22;5412;59.450;18.124;2022-07-23T08:33:59;18.60;99.90
10722;DHT22;5412;59.450;18.124;2022-07-23T08:36:24;18.70;99.90
10722;DHT22;5412;59.450;18.124;2022-07-23T08:38:53;18.70;99.90
10722;DHT22;5412;59.450;18.124;2022-07-23T08:41:19;18.70;99.90
10722;DHT22;5412;59.450;18.124;2022-07-23T08:43:45;18.70;99.90
10722;DHT22;5412;59.450;18.124;2022-07-23T08:46:13;18.70;99.90
10722;DHT22;5412;59.450;18.124;2022-07-23T08:48:39;18.70;99.90
10722;DHT22;5412;59.450;18.124;2022-07-23T08:51:06;18.70;99.90
10722;DHT22;5412;59.450;18.124;2022-07-23T08:53:33;18.60;99.90
10722;DHT22;5412;59.450;18.124;2022-07-23T08:56:02;18.60;99.90
10722;DHT22;5412;59.450;18.124;2022-07-23T08:58:29;18.40;99.90
10722;DHT22;5412;59.450;18.124;2022-07-23T09:00:55;18.40;99.90
10722;DHT22;5412;59.450;18.124;2022-07-23T09:03:29;18.30;99.90
10722;DHT22;5412;59.450;18.124;2022-07-23T09:05:56;18.20;99.90
10722;DHT22;5412;59.450;18.124;2022-07-23T09:08:24;18.30;99.90
10722;DHT22;5412;59.450;18.124;2022-07-23T09:16:29;18.90;99.90
10722;DHT22;5412;59.450;18.124;2022-07-23T09:18:56;18.90;99.90
10722;DHT22;5412;59.450;18.124;2022-07-23T09:21:25;18.70;99.90
10722;DHT22;5412;59.450;18.124;2022-07-23T09:24:11;18.70;99.90
10722;DHT22;5412;59.450;18.124;2022-07-23T09:26:42;18.70;99.90
10722;DHT22;5412;59.450;18.124;2022-07-23T09:29:17;18.60;99.90
10722;DHT22;5412;59.450;18.124;2022-07-23T09:36:42;18.60;99.90
10722;DHT22;5412;59.450;18.124;2022-07-23T09:39:08;18.50;99.90
10722;DHT22;5412;59.450;18.124;2022-07-23T09:41:52;18.50;99.90
10722;DHT22;5412;59.450;18.124;2022-07-23T09:44:19;18.60;99.90
10722;DHT22;5412;59.450;18.124;2022-07-23T09:46:47;18.40;99.90
10722;DHT22;5412;59.450;18.124;2022-07-23T09:49:22;18.30;99.90
10722;DHT22;5412;59.450;18.124;2022-07-23T09:51:55;18.20;99.90
10722;DHT22;5412;59.450;18.124;2022-07-23T09:54:31;18.20;99.90
10722;DHT22;5412;59.450;18.124;2022-07-23T09:57:01;18.10;99.90
10722;DHT22;5412;59.450;18.124;2022-07-23T09:59:35;18.00;99.90
10722;DHT22;5412;59.450;18.124;2022-07-23T10:02:01;17.90;99.90
10722;DHT22;5412;59.450;18.124;2022-07-23T10:04:29;17.80;99.90
10722;DHT22;5412;59.450;18.124;2022-07-23T10:07:03;17.90;99.90
10722;DHT22;5412;59.450;18.124;2022-07-23T10:09:34;18.10;99.90
10722;DHT22;5412;59.450;18.124;2022-07-23T10:12:02;18.20;99.90
10722;DHT22;5412;59.450;18.124;2022-07-23T10:14:55;18.10;99.90
10722;DHT22;5412;59.450;18.124;2022-07-23T10:17:21;18.10;99.90
10722;DHT22;5412;59.450;18.124;2022-07-23T10:19:47;18.20;99.90
10722;DHT22;5412;59.450;18.124;2022-07-23T10:22:22;18.10;99.90
10722;DHT22;5412;59.450;18.124;2022-07-23T10:27:31;18.40;99.90
10722;DHT22;5412;59.450;18.124;2022-07-23T10:30:07;18.30;99.90
10722;DHT22;5412;59.450;18.124;2022-07-23T10:32:45;18.30;99.90
10722;DHT22;5412;59.450;18.124;2022-07-23T10:35:31;18.10;99.90
10722;DHT22;5412;59.450;18.124;2022-07-23T10:38:11;18.20;99.90
10722;DHT22;5412;59.450;18.124;2022-07-23T10:41:03;18.10;99.90
10722;DHT22;5412;59.450;18.124;2022-07-23T10:43:29;18.10;99.90
10722;DHT22;5412;59.450;18.124;2022-07-23T10:45:56;17.90;99.90
10722;DHT22;5412;59.450;18.124;2022-07-23T10:48:41;17.90;99.90
10722;DHT22;5412;59.450;18.124;2022-07-23T10:56:48;17.70;99.90
10722;DHT22;5412;59.450;18.124;2022-07-23T10:59:04;17.50;99.90
10722;DHT22;5412;59.450;18.124;2022-07-23T11:01:37;17.60;99.90
10722;DHT22;5412;59.450;18.124;2022-07-23T11:04:04;17.60;99.90
10722;DHT22;5412;59.450;18.124;2022-07-23T11:09:41;17.60;99.90
10722;DHT22;5412;59.450;18.124;2022-07-23T11:17:26;17.50;99.90
10722;DHT22;5412;59.450;18.124;2022-07-23T11:25:13;17.60;99.90
10722;DHT22;5412;59.450;18.124;2022-07-23T11:27:53;17.50;99.90
10722;DHT22;5412;59.450;18.124;2022-07-23T11:35:42;17.60;99.90
10722;DHT22;5412;59.450;18.124;2022-07-23T11:38:19;17.40;99.90
10722;DHT22;5412;59.450;18.124;2022-07-23T11:40:52;17.30;99.90
10722;DHT22;5412;59.450;18.124;2022-07-23T11:43:20;17.40;99.90
10722;DHT22;5412;59.450;18.124;2022-07-23T11:45:50;17.60;99.90
10722;DHT22;5412;59.450;18.124;2022-07-23T11:48:21;17.60;99.90
10722;DHT22;5412;59.450;18.124;2022-07-23T11:50:48;17.50;99.90
10722;DHT22;5412;59.450;18.124;2022-07-23T11:53:13;17.60;99.90
10722;DHT22;5412;59.450;18.124;2022-07-23T11:55:46;17.60;99.90
10722;DHT22;5412;59.450;18.124;2022-07-23T11:58:11;17.60;99.90
10722;DHT22;5412;59.450;18.124;2022-07-23T12:00:40;17.60;99.90
10722;DHT22;5412;59.450;18.124;2022-07-23T12:03:06;17.80;99.90
10722;DHT22;5412;59.450;18.124;2022-07-23T12:05:34;17.80;99.90
10722;DHT22;5412;59.450;18.124;2022-07-23T12:08:02;17.70;99.90
10722;DHT22;5412;59.450;18.124;2022-07-23T12:10:37;17.90;99.90
10722;DHT22;5412;59.450;18.124;2022-07-23T12:13:06;17.80;99.90
10722;DHT22;5412;59.450;18.124;2022-07-23T12:15:35;17.80;99.90
10722;DHT22;5412;59.450;18.124;2022-07-23T12:18:04;17.90;99.90
10722;DHT22;5412;59.450;18.124;2022-07-23T12:20:51;17.80;99.90
10722;DHT22;5412;59.450;18.124;2022-07-23T12:23:18;18.10;99.90
10722;DHT22;5412;59.450;18.124;2022-07-23T12:25:46;18.10;99.90
10722;DHT22;5412;59.450;18.124;2022-07-23T12:28:18;18.10;99.90
10722;DHT22;5412;59.450;18.124;2022-07-23T12:30:49;18.20;99.90
10722;DHT22;5412;59.450;18.124;2022-07-23T12:35:47;18.40;99.90
10722;DHT22;5412;59.450;18.124;2022-07-23T12:38:16;18.30;99.90
10722;DHT22;5412;59.450;18.124;2022-07-23T12:43:18;18.30;99.90
10722;DHT22;5412;59.450;18.124;2022-07-23T12:46:06;18.40;99.90
10722;DHT22;5412;59.450;18.124;2022-07-23T12:48:33;18.50;99.90
10722;DHT22;5412;59.450;18.124;2022-07-23T12:51:14;18.60;99.90
10722;DHT22;5412;59.450;18.124;2022-07-23T12:53:46;18.60;99.90
10722;DHT22;5412;59.450;18.124;2022-07-23T12:56:19;18.20;99.90
10722;DHT22;5412;59.450;18.124;2022-07-23T12:58:48;18.40;99.90
10722;DHT22;5412;59.450;18.124;2022-07-23T13:03:55;18.50;99.90
10722;DHT22;5412;59.450;18.124;2022-07-23T13:06:21;18.50;99.90
10722;DHT22;5412;59.450;18.124;2022-07-23T13:08:47;18.50;99.90
10722;DHT22;5412;59.450;18.124;2022-07-23T13:11:13;18.50;99.90
10722;DHT22;5412;59.450;18.124;2022-07-23T13:13:39;18.60;99.90
10722;DHT22;5412;59.450;18.124;2022-07-23T13:16:04;18.70;99.90
10722;DHT22;5412;59.450;18.124;2022-07-23T13:18:31;18.70;99.90
10722;DHT22;5412;59.450;18.124;2022-07-23T13:20:57;18.70;99.90
10722;DHT22;5412;59.450;18.124;2022-07-23T13:23:23;18.70;99.90
10722;DHT22;5412;59.450;18.124;2022-07-23T13:25:49;18.80;99.90
10722;DHT22;5412;59.450;18.124;2022-07-23T13:28:16;18.80;99.90
10722;DHT22;5412;59.450;18.124;2022-07-23T13:30:42;18.60;99.90
10722;DHT22;5412;59.450;18.124;2022-07-23T13:33:08;18.60;99.90
10722;DHT22;5412;59.450;18.124;2022-07-23T13:35:35;18.80;99.90
10722;DHT22;5412;59.450;18.124;2022-07-23T13:38:02;18.70;99.90
10722;DHT22;5412;59.450;18.124;2022-07-23T13:40:28;18.80;99.90
10722;DHT22;5412;59.450;18.124;2022-07-23T13:42:54;18.80;99.90
10722;DHT22;5412;59.450;18.124;2022-07-23T13:45:20;18.70;99.90
10722;DHT22;5412;59.450;18.124;2022-07-23T13:47:46;18.70;99.90
10722;DHT22;5412;59.450;18.124;2022-07-23T13:50:11;18.60;99.90
10722;DHT22;5412;59.450;18.124;2022-07-23T13:52:37;18.50;99.90
10722;DHT22;5412;59.450;18.124;2022-07-23T13:55:05;18.40;99.90
10722;DHT22;5412;59.450;18.124;2022-07-23T13:57:32;18.40;99.90
10722;DHT22;5412;59.450;18.124;2022-07-23T13:59:58;18.30;99.90
10722;DHT22;5412;59.450;18.124;2022-07-23T14:02:23;18.20;99.90
10722;DHT22;5412;59.450;18.124;2022-07-23T14:04:50;18.30;99.90
10722;DHT22;5412;59.450;18.124;2022-07-23T14:07:16;18.60;99.90
10722;DHT22;5412;59.450;18.124;2022-07-23T14:09:41;18.50;99.90
10722;DHT22;5412;59.450;18.124;2022-07-23T14:12:07;18.60;99.90
10722;DHT22;5412;59.450;18.124;2022-07-23T14:14:33;18.60;99.90
10722;DHT22;5412;59.450;18.124;2022-07-23T14:16:59;18.60;99.90
10722;DHT22;5412;59.450;18.124;2022-07-23T14:19:25;18.60;99.90
10722;DHT22;5412;59.450;18.124;2022-07-23T14:21:50;18.70;99.90
10722;DHT22;5412;59.450;18.124;2022-07-23T14:24:16;18.70;99.90
10722;DHT22;5412;59.450;18.124;2022-07-23T14:26:42;18.60;99.90
10722;DHT22;5412;59.450;18.124;2022-07-23T14:29:07;18.70;99.90
10722;DHT22;5412;59.450;18.124;2022-07-23T14:31:33;18.70;99.90
10722;DHT22;5412;59.450;18.124;2022-07-23T14:33:59;18.70;99.90
10722;DHT22;5412;59.450;18.124;2022-07-23T14:36:25;18.60;99.90
10722;DHT22;5412;59.450;18.124;2022-07-23T14:38:51;18.60;99.90
10722;DHT22;5412;59.450;18.124;2022-07-23T14:41:17;18.60;99.90
10722;DHT22;5412;59.450;18.124;2022-07-23T14:43:43;18.60;99.90
10722;DHT22;5412;59.450;18.124;2022-07-23T14:46:09;18.50;99.90
10722;DHT22;5412;59.450;18.124;2022-07-23T14:48:36;18.60;99.90
10722;DHT22;5412;59.450;18.124;2022-07-23T14:51:02;18.60;99.90
10722;DHT22;5412;59.450;18.124;2022-07-23T14:53:28;18.80;99.90
10722;DHT22;5412;59.450;18.124;2022-07-23T14:55:54;18.80;99.90
10722;DHT22;5412;59.450;18.124;2022-07-23T14:58:21;18.70;99.90
10722;DHT22;5412;59.450;18.124;2022-07-23T15:00:46;18.70;99.90
10722;DHT22;5412;59.450;18.124;2022-07-23T15:03:12;18.80;99.90
10722;DHT22;5412;59.450;18.124;2022-07-23T15:05:38;18.80;99.90
10722;DHT22;5412;59.450;18.124;2022-07-23T15:08:03;18.80;99.90
10722;DHT22;5412;59.450;18.124;2022-07-23T15:10:29;18.80;99.90
10722;DHT22;5412;59.450;18.124;2022-07-23T15:12:55;18.80;99.90
10722;DHT22;5412;59.450;18.124;2022-07-23T15:15:20;18.70;99.90
10722;DHT22;5412;59.450;18.124;2022-07-23T15:17:46;18.70;99.90
10722;DHT22;5412;59.450;18.124;2022-07-23T15:20:12;18.70;99.90
10722;DHT22;5412;59.450;18.124;2022-07-23T15:22:38;18.80;99.90
10722;DHT22;5412;59.450;18.124;2022-07-23T15:25:04;18.80;99.90
10722;DHT22;5412;59.450;18.124;2022-07-23T15:27:30;18.80;99.90
10722;DHT22;5412;59.450;18.124;2022-07-23T15:29:56;18.90;99.90
10722;DHT22;5412;59.450;18.124;2022-07-23T15:32:21;18.90;99.90
10722;DHT22;5412;59.450;18.124;2022-07-23T15:34:50;19.00;99.90
10722;DHT22;5412;59.450;18.124;2022-07-23T15:37:16;19.10;99.90
10722;DHT22;5412;59.450;18.124;2022-07-23T15:39:41;19.10;99.90
10722;DHT22;5412;59.450;18.124;2022-07-23T15:42:07;19.10;99.90
10722;DHT22;5412;59.450;18.124;2022-07-23T15:44:33;19.20;99.90
10722;DHT22;5412;59.450;18.124;2022-07-23T15:46:58;19.20;99.90
10722;DHT22;5412;59.450;18.124;2022-07-23T15:49:24;19.30;99.90
10722;DHT22;5412;59.450;18.124;2022-07-23T15:51:50;19.10;99.90
10722;DHT22;5412;59.450;18.124;2022-07-23T15:54:15;19.00;99.90
10722;DHT22;5412;59.450;18.124;2022-07-23T15:56:41;18.90;99.90
10722;DHT22;5412;59.450;18.124;2022-07-23T15:59:08;18.80;99.90
10722;DHT22;5412;59.450;18.124;2022-07-23T16:01:34;19.00;99.90
10722;DHT22;5412;59.450;18.124;2022-07-23T16:03:59;19.10;99.90
10722;DHT22;5412;59.450;18.124;2022-07-23T16:06:26;19.10;99.90
10722;DHT22;5412;59.450;18.124;2022-07-23T16:08:52;19.20;99.90
10722;DHT22;5412;59.450;18.124;2022-07-23T16:11:18;19.10;99.90
10722;DHT22;5412;59.450;18.124;2022-07-23T16:13:44;19.10;99.90